createdAt,value
2022-10-30T00:00:45.502Z,18.90
2022-10-30T00:03:14.044Z,16.52
2022-10-30T00:05:43.162Z,16.10
2022-10-30T00:08:12.260Z,16.77
2022-10-30T00:10:39.446Z,17.92
2022-10-30T00:13:06.750Z,19.77
2022-10-30T00:15:33.983Z,22.52
2022-10-30T00:18:01.337Z,28.27
2022-10-30T00:20:28.380Z,24.13
2022-10-30T00:22:55.540Z,24.33
2022-10-30T00:25:22.759Z,24.70
2022-10-30T00:27:49.580Z,24.85
2022-10-30T00:30:16.592Z,27.95
2022-10-30T00:32:44.171Z,23.77
2022-10-30T00:35:11.462Z,30.00
2022-10-30T00:37:39.283Z,29.15
2022-10-30T00:40:06.981Z,28.10
2022-10-30T00:42:33.974Z,29.83
2022-10-30T00:45:00.781Z,28.17
2022-10-30T00:47:43.328Z,28.65
2022-10-30T00:50:16.492Z,29.10
2022-10-30T00:52:57.553Z,33.83
2022-10-30T00:55:43.544Z,28.30
2022-10-30T00:58:15.570Z,31.00
2022-10-30T01:00:48.061Z,26.98
2022-10-30T01:03:15.995Z,29.98
2022-10-30T01:05:48.658Z,26.42
2022-10-30T01:08:15.668Z,24.70
2022-10-30T01:10:43.476Z,28.83
2022-10-30T01:13:11.337Z,27.73
2022-10-30T01:15:47.959Z,24.63
2022-10-30T01:18:35.049Z,23.95
2022-10-30T01:21:23.853Z,22.10
2022-10-30T01:24:04.682Z,26.67
2022-10-30T01:26:43.956Z,24.67
2022-10-30T01:29:45.056Z,27.70
2022-10-30T01:32:54.475Z,26.07
2022-10-30T01:35:36.780Z,25.52
2022-10-30T01:38:21.611Z,20.00
2022-10-30T01:40:52.640Z,24.25
2022-10-30T01:43:20.308Z,25.95
2022-10-30T01:46:07.890Z,28.23
2022-10-30T01:48:53.488Z,22.77
2022-10-30T01:51:45.186Z,24.13
2022-10-30T01:54:21.024Z,25.55
2022-10-30T01:56:51.455Z,20.23
2022-10-30T01:59:26.199Z,20.70
2022-10-30T02:01:53.089Z,19.83
2022-10-30T02:04:20.409Z,20.50
2022-10-30T02:06:47.868Z,18.98
2022-10-30T02:09:16.690Z,21.90
2022-10-30T02:11:50.018Z,16.80
2022-10-30T02:14:23.563Z,18.25
2022-10-30T02:16:53.104Z,15.27
2022-10-30T02:19:20.716Z,20.48
2022-10-30T02:21:47.955Z,17.42
2022-10-30T02:24:15.027Z,17.90
2022-10-30T02:26:41.924Z,22.38
2022-10-30T02:29:09.207Z,21.27
2022-10-30T02:31:37.496Z,27.27
2022-10-30T02:34:04.572Z,24.25
2022-10-30T02:36:32.494Z,31.73
2022-10-30T02:39:00.211Z,31.98
2022-10-30T02:41:27.193Z,32.67
2022-10-30T02:43:54.041Z,33.08
2022-10-30T02:46:20.975Z,35.58
2022-10-30T02:48:49.118Z,36.03
2022-10-30T02:51:16.072Z,34.20
2022-10-30T02:53:42.956Z,34.88
2022-10-30T02:56:12.851Z,38.42
2022-10-30T02:58:41.669Z,33.88
2022-10-30T03:01:17.766Z,44.33
2022-10-30T03:03:45.512Z,47.53
2022-10-30T03:25:37.168Z,73.20
2022-10-30T03:28:04.354Z,78.88
2022-10-30T03:30:31.389Z,82.60
2022-10-30T03:33:01.477Z,89.25
2022-10-30T03:35:28.444Z,77.93
2022-10-30T03:37:55.261Z,86.38
2022-10-30T03:40:22.258Z,98.13
2022-10-30T03:42:49.709Z,83.85
2022-10-30T03:45:17.416Z,88.57
2022-10-30T03:47:44.361Z,99.28
2022-10-30T03:50:11.235Z,92.82
2022-10-30T03:52:38.051Z,104.50
2022-10-30T03:55:05.423Z,95.80
2022-10-30T03:57:37.040Z,95.88
2022-10-30T04:00:17.002Z,97.82
2022-10-30T04:02:55.420Z,86.60
2022-10-30T04:05:25.345Z,101.20
2022-10-30T04:08:00.126Z,84.50
2022-10-30T04:10:29.836Z,93.80
2022-10-30T04:13:02.258Z,110.80
2022-10-30T04:15:30.132Z,113.50
2022-10-30T04:17:57.338Z,132.10
2022-10-30T04:20:25.970Z,127.70
2022-10-30T04:22:57.456Z,134.57
2022-10-30T04:25:24.937Z,148.35
2022-10-30T04:27:55.367Z,207.85
2022-10-30T04:30:24.164Z,131.43
2022-10-30T04:32:54.031Z,111.00
2022-10-30T04:35:23.716Z,104.45
2022-10-30T04:37:59.564Z,110.88
2022-10-30T04:40:33.610Z,95.82
2022-10-30T04:43:05.457Z,94.40
2022-10-30T04:45:33.852Z,94.60
2022-10-30T04:48:13.720Z,101.18
2022-10-30T04:50:41.667Z,88.28
2022-10-30T04:53:13.269Z,97.20
2022-10-30T04:55:41.008Z,87.50
2022-10-30T04:58:10.917Z,82.60
2022-10-30T05:00:40.005Z,82.82
2022-10-30T05:03:24.757Z,75.90
2022-10-30T05:06:02.278Z,74.28
2022-10-30T05:08:30.035Z,72.25
2022-10-30T05:11:00.213Z,80.65
2022-10-30T05:13:28.881Z,71.97
2022-10-30T05:15:55.736Z,71.30
2022-10-30T05:18:23.576Z,56.88
2022-10-30T05:20:50.511Z,59.63
2022-10-30T05:23:17.420Z,53.28
2022-10-30T05:25:44.373Z,53.58
2022-10-30T05:28:12.863Z,45.83
2022-10-30T05:35:59.641Z,41.13
2022-10-30T05:38:27.735Z,30.55
2022-10-30T05:40:54.964Z,29.08
2022-10-30T05:43:23.230Z,19.50
2022-10-30T05:45:50.426Z,19.10
2022-10-30T05:48:18.323Z,19.15
2022-10-30T05:50:46.791Z,17.85
2022-10-30T05:53:24.449Z,16.60
2022-10-30T05:55:57.017Z,16.33
2022-10-30T05:58:25.300Z,18.02
2022-10-30T06:00:54.692Z,17.25
2022-10-30T06:03:35.381Z,17.13
2022-10-30T06:06:02.600Z,15.77
2022-10-30T06:08:29.824Z,17.70
2022-10-30T06:10:59.449Z,16.25
2022-10-30T06:13:34.007Z,18.30
2022-10-30T06:16:09.426Z,18.70
2022-10-30T06:18:55.023Z,16.75
2022-10-30T06:21:22.904Z,15.15
2022-10-30T06:24:18.871Z,18.48
2022-10-30T06:27:04.299Z,18.23
2022-10-30T06:29:31.198Z,22.90
2022-10-30T06:31:59.798Z,25.60
2022-10-30T06:34:29.433Z,25.77
2022-10-30T06:36:56.437Z,23.60
2022-10-30T06:39:23.576Z,23.13
2022-10-30T06:42:06.894Z,20.83
2022-10-30T06:44:58.263Z,24.33
2022-10-30T06:47:25.264Z,20.50
2022-10-30T06:49:52.116Z,21.83
2022-10-30T06:52:23.092Z,17.77
2022-10-30T06:54:52.397Z,17.60
2022-10-30T06:57:38.283Z,18.15
2022-10-30T07:00:28.337Z,17.83
2022-10-30T07:03:18.896Z,15.02
2022-10-30T07:05:46.154Z,21.10
2022-10-30T07:08:13.544Z,22.48
2022-10-30T07:10:40.646Z,17.00
2022-10-30T07:13:27.723Z,19.05
2022-10-30T07:15:59.993Z,19.52
2022-10-30T07:18:32.889Z,20.93
2022-10-30T07:21:01.289Z,22.00
2022-10-30T07:23:29.648Z,23.95
2022-10-30T07:26:14.885Z,21.88
2022-10-30T07:28:46.560Z,21.65
2022-10-30T07:32:01.881Z,21.77
2022-10-30T07:34:34.563Z,21.98
2022-10-30T07:37:24.448Z,20.75
2022-10-30T07:40:12.680Z,17.15
2022-10-30T07:43:00.951Z,18.70
2022-10-30T07:45:50.687Z,21.67
2022-10-30T07:48:36.412Z,18.92
2022-10-30T07:51:29.459Z,19.92
2022-10-30T07:53:56.459Z,23.00
2022-10-30T07:56:24.925Z,20.73
2022-10-30T07:58:54.715Z,24.88
2022-10-30T08:01:33.899Z,21.83
2022-10-30T08:04:22.889Z,18.73
2022-10-30T08:06:49.844Z,24.05
2022-10-30T08:09:16.723Z,22.20
2022-10-30T08:11:46.653Z,24.27
2022-10-30T08:14:13.663Z,20.30
2022-10-30T08:16:40.612Z,22.05
2022-10-30T08:19:08.810Z,21.17
2022-10-30T08:21:35.891Z,25.95
2022-10-30T08:24:10.604Z,28.00
2022-10-30T08:26:40.692Z,21.15
2022-10-30T08:29:10.284Z,20.10
2022-10-30T08:31:38.102Z,21.98
2022-10-30T08:34:05.855Z,22.55
2022-10-30T08:36:53.168Z,27.05
2022-10-30T08:39:20.650Z,20.50
2022-10-30T08:41:50.350Z,23.08
2022-10-30T08:44:18.885Z,24.27
2022-10-30T08:47:14.727Z,26.10
2022-10-30T08:49:41.840Z,25.85
2022-10-30T08:52:09.925Z,25.70
2022-10-30T08:54:36.848Z,17.08
2022-10-30T08:57:03.784Z,21.38
2022-10-30T08:59:30.603Z,19.20
2022-10-30T09:01:59.679Z,20.77
2022-10-30T09:04:45.068Z,17.65
2022-10-30T09:07:35.464Z,47.92
2022-10-30T09:10:40.503Z,18.90
2022-10-30T09:13:10.376Z,20.05
2022-10-30T09:15:37.412Z,21.92
2022-10-30T09:18:05.392Z,17.30
2022-10-30T09:20:32.363Z,17.80
2022-10-30T09:22:59.650Z,14.73
2022-10-30T09:25:27.170Z,12.88
2022-10-30T09:28:06.007Z,12.90
2022-10-30T09:30:46.288Z,13.88
2022-10-30T09:33:16.728Z,11.82
2022-10-30T09:36:13.843Z,13.35
2022-10-30T09:38:43.762Z,17.48
2022-10-30T09:41:38.457Z,13.85
2022-10-30T09:45:02.140Z,12.25
2022-10-30T09:47:40.352Z,12.57
2022-10-30T09:50:16.645Z,10.85
2022-10-30T09:52:53.788Z,14.63
2022-10-30T09:55:33.115Z,12.93
2022-10-30T09:58:35.623Z,11.18
2022-10-30T10:01:18.698Z,11.00
2022-10-30T10:04:02.339Z,12.82
2022-10-30T10:07:07.641Z,10.68
2022-10-30T10:09:54.562Z,14.82
2022-10-30T10:13:00.090Z,6.90
2022-10-30T10:15:45.088Z,8.18
2022-10-30T10:18:20.581Z,7.93
2022-10-30T10:20:51.807Z,9.65
2022-10-30T10:23:27.448Z,9.43
2022-10-30T10:25:54.904Z,9.95
2022-10-30T10:28:40.837Z,6.63
2022-10-30T10:31:19.041Z,8.02
2022-10-30T10:34:00.772Z,8.98
2022-10-30T10:36:41.003Z,7.50
2022-10-30T10:39:33.635Z,6.93
2022-10-30T10:42:15.370Z,8.27
2022-10-30T10:44:54.952Z,6.18
2022-10-30T10:47:50.698Z,8.45
2022-10-30T10:50:29.020Z,19.10
2022-10-30T10:53:12.448Z,8.85
2022-10-30T10:55:39.968Z,10.88
2022-10-30T10:58:15.893Z,6.07
2022-10-30T11:00:42.855Z,5.45
2022-10-30T11:05:52.493Z,7.97
2022-10-30T11:10:59.220Z,6.35
2022-10-30T11:13:34.428Z,8.15
2022-10-30T11:16:07.004Z,7.70
2022-10-30T11:18:35.143Z,10.35
2022-10-30T11:21:09.907Z,7.15
2022-10-30T11:23:41.018Z,8.40
2022-10-30T11:26:26.047Z,6.28
2022-10-30T11:29:11.343Z,6.82
2022-10-30T11:31:45.292Z,6.13
2022-10-30T11:34:18.187Z,6.88
2022-10-30T11:36:46.228Z,6.53
2022-10-30T11:39:34.199Z,9.27
2022-10-30T11:42:09.437Z,4.97
2022-10-30T11:44:44.134Z,4.57
2022-10-30T11:47:13.056Z,7.20
2022-10-30T11:49:46.667Z,8.70
2022-10-30T11:52:16.974Z,4.47
2022-10-30T11:54:48.888Z,7.60
2022-10-30T11:57:19.799Z,6.75
2022-10-30T11:59:47.808Z,6.57
2022-10-30T12:02:29.195Z,6.70
2022-10-30T12:05:02.548Z,8.90
2022-10-30T12:07:33.903Z,7.13
2022-10-30T12:10:02.432Z,8.55
2022-10-30T12:12:33.067Z,7.30
2022-10-30T12:15:15.372Z,10.07
2022-10-30T12:17:55.658Z,6.72
2022-10-30T12:20:22.663Z,7.65
2022-10-30T12:22:49.836Z,5.72
2022-10-30T12:25:24.675Z,7.18
2022-10-30T12:27:59.921Z,8.25
2022-10-30T12:30:31.225Z,7.65
2022-10-30T12:33:18.889Z,9.80
2022-10-30T12:35:54.855Z,5.82
2022-10-30T12:38:34.639Z,6.70
2022-10-30T12:41:10.492Z,8.18
2022-10-30T12:43:37.313Z,7.45
2022-10-30T12:46:28.049Z,8.05
2022-10-30T12:49:09.296Z,8.82
2022-10-30T12:52:01.128Z,7.22
2022-10-30T12:54:55.288Z,8.00
2022-10-30T12:57:27.000Z,7.93
2022-10-30T13:00:20.199Z,7.50
2022-10-30T13:03:21.207Z,9.43
2022-10-30T13:05:53.889Z,8.98
2022-10-30T13:08:36.652Z,7.78
2022-10-30T13:11:19.464Z,6.28
2022-10-30T13:13:50.194Z,8.00
2022-10-30T13:16:30.530Z,9.18
2022-10-30T13:19:00.653Z,8.73
2022-10-30T13:21:38.307Z,10.45
2022-10-30T13:24:09.498Z,9.40
2022-10-30T13:26:46.140Z,8.65
2022-10-30T13:29:12.979Z,7.75
2022-10-30T13:31:48.733Z,7.07
2022-10-30T13:34:30.519Z,8.05
2022-10-30T13:37:08.616Z,11.18
2022-10-30T13:39:42.779Z,10.45
2022-10-30T13:42:23.302Z,7.20
2022-10-30T13:45:08.873Z,9.75
2022-10-30T13:47:45.605Z,7.18
2022-10-30T13:50:33.656Z,8.48
2022-10-30T13:55:35.675Z,6.30
2022-10-30T13:58:34.608Z,9.48
2022-10-30T14:01:09.553Z,6.10
2022-10-30T14:03:57.879Z,7.13
2022-10-30T14:06:43.087Z,5.68
2022-10-30T14:09:25.597Z,5.90
2022-10-30T14:11:55.698Z,11.25
2022-10-30T14:14:30.221Z,7.90
2022-10-30T14:17:10.993Z,6.72
2022-10-30T14:20:12.099Z,8.90
2022-10-30T14:22:40.437Z,7.72
2022-10-30T14:25:15.161Z,7.55
2022-10-30T14:27:42.619Z,7.30
2022-10-30T14:30:19.896Z,6.72
2022-10-30T14:32:52.141Z,8.93
2022-10-30T14:36:08.367Z,7.05
2022-10-30T14:38:35.713Z,7.45
2022-10-30T14:41:15.897Z,7.60
2022-10-30T14:43:52.242Z,9.48
2022-10-30T14:47:01.773Z,12.10
2022-10-30T14:49:35.860Z,8.63
2022-10-30T14:52:41.256Z,9.43
2022-10-30T14:55:26.303Z,9.75
2022-10-30T14:58:02.365Z,8.07
2022-10-30T15:00:39.808Z,10.95
2022-10-30T15:03:13.590Z,11.60
2022-10-30T15:05:54.887Z,10.98
2022-10-30T15:08:55.374Z,9.70
2022-10-30T15:27:35.731Z,10.65
2022-10-30T15:30:04.469Z,15.63
2022-10-30T15:32:31.506Z,14.43
2022-10-30T15:35:04.251Z,13.75
2022-10-30T15:37:32.326Z,9.75
2022-10-30T15:40:15.995Z,9.30
2022-10-30T15:42:43.560Z,10.50
2022-10-30T15:45:20.344Z,9.60
2022-10-30T15:47:54.542Z,10.88
2022-10-30T15:50:22.140Z,11.65
2022-10-30T15:52:49.994Z,13.85
2022-10-30T15:55:20.892Z,12.45
2022-10-30T15:58:07.116Z,14.65
2022-10-30T16:00:37.106Z,11.48
2022-10-30T16:03:17.518Z,12.05
2022-10-30T16:05:44.732Z,15.63
2022-10-30T16:08:21.789Z,17.30
2022-10-30T16:10:50.219Z,12.23
2022-10-30T16:13:20.179Z,10.90
2022-10-30T16:15:48.030Z,13.48
2022-10-30T16:18:25.085Z,12.20
2022-10-30T16:21:04.815Z,14.45
2022-10-30T16:23:41.415Z,14.60
2022-10-30T16:26:25.479Z,14.63
2022-10-30T16:28:52.930Z,14.73
2022-10-30T16:31:20.564Z,12.43
2022-10-30T16:33:51.053Z,19.58
2022-10-30T16:36:19.531Z,15.70
2022-10-30T16:38:49.009Z,17.00
2022-10-30T16:41:16.516Z,19.02
2022-10-30T16:44:05.689Z,19.40
2022-10-30T16:46:38.122Z,22.92
2022-10-30T16:49:12.108Z,21.20
2022-10-30T16:51:43.139Z,12.98
2022-10-30T16:54:20.053Z,15.93
2022-10-30T16:56:49.077Z,11.45
2022-10-30T16:59:30.427Z,15.93
2022-10-30T17:02:06.145Z,14.40
2022-10-30T17:04:34.665Z,16.17
2022-10-30T17:07:16.578Z,13.68
2022-10-30T17:09:43.447Z,14.23
2022-10-30T17:12:27.323Z,15.30
2022-10-30T17:15:06.412Z,16.52
2022-10-30T17:17:35.757Z,10.93
2022-10-30T17:20:06.784Z,17.83
2022-10-30T17:22:33.892Z,17.23
2022-10-30T17:25:00.840Z,11.23
2022-10-30T17:27:46.242Z,12.02
2022-10-30T17:30:34.515Z,13.18
2022-10-30T17:33:04.436Z,12.57
2022-10-30T17:35:31.262Z,14.15
2022-10-30T17:38:01.597Z,13.00
2022-10-30T17:40:29.920Z,15.00
2022-10-30T17:42:56.723Z,11.55
2022-10-30T17:45:23.526Z,11.23
2022-10-30T17:47:50.288Z,13.45
2022-10-30T17:50:17.177Z,12.90
2022-10-30T17:52:44.026Z,12.07
2022-10-30T17:55:25.899Z,14.05
2022-10-30T17:57:53.008Z,12.25
2022-10-30T18:00:19.969Z,13.05
2022-10-30T18:02:47.397Z,12.07
2022-10-30T18:05:19.937Z,19.75
2022-10-30T18:07:47.074Z,10.63
2022-10-30T18:10:13.990Z,15.95
2022-10-30T18:12:41.517Z,13.75
2022-10-30T18:15:27.131Z,17.15
2022-10-30T18:17:54.103Z,10.65
2022-10-30T18:20:21.371Z,12.60
2022-10-30T18:22:48.349Z,12.30
2022-10-30T18:25:32.463Z,11.32
2022-10-30T18:27:59.251Z,9.00
2022-10-30T18:30:29.099Z,14.77
2022-10-30T18:32:57.075Z,11.55
2022-10-30T18:35:29.837Z,15.50
2022-10-30T18:37:57.730Z,10.90
2022-10-30T18:40:25.486Z,11.13
2022-10-30T18:42:52.457Z,10.05
2022-10-30T18:45:26.259Z,14.43
2022-10-30T18:47:54.595Z,10.30
2022-10-30T18:50:23.877Z,10.60
2022-10-30T18:52:51.342Z,13.18
2022-10-30T18:55:22.872Z,9.93
2022-10-30T18:57:51.356Z,12.15
2022-10-30T19:00:39.433Z,14.00
2022-10-30T19:03:12.458Z,9.80
2022-10-30T19:05:49.197Z,13.80
2022-10-30T19:08:16.651Z,11.23
2022-10-30T19:10:47.163Z,10.80
2022-10-30T19:13:22.504Z,10.77
2022-10-30T19:15:57.411Z,13.05
2022-10-30T19:18:28.559Z,13.30
2022-10-30T19:21:04.511Z,247.27
2022-10-30T19:23:33.454Z,21.30
2022-10-30T19:26:00.445Z,14.23
2022-10-30T19:28:27.528Z,12.52
2022-10-30T19:30:54.937Z,12.98
2022-10-30T19:33:23.613Z,15.52
2022-10-30T19:35:55.468Z,14.23
2022-10-30T19:38:23.540Z,15.18
2022-10-30T19:40:50.787Z,12.15
2022-10-30T19:43:17.726Z,11.50
2022-10-30T19:45:44.900Z,11.10
2022-10-30T19:48:20.693Z,10.23
2022-10-30T19:50:51.567Z,11.30
2022-10-30T19:53:18.465Z,15.27
2022-10-30T19:55:46.922Z,12.60
2022-10-30T19:58:15.814Z,14.23
2022-10-30T20:00:45.427Z,14.93
2022-10-30T20:03:14.776Z,14.05
2022-10-30T20:05:47.132Z,18.02
2022-10-30T20:08:32.331Z,13.02
2022-10-30T20:10:59.952Z,14.40
2022-10-30T20:13:28.102Z,18.50
2022-10-30T20:15:57.053Z,20.55
2022-10-30T20:18:30.456Z,21.92
2022-10-30T20:20:59.671Z,18.38
2022-10-30T20:23:27.029Z,19.65
2022-10-30T20:25:57.884Z,15.57
2022-10-30T20:28:37.442Z,17.17
2022-10-30T20:31:05.034Z,15.65
2022-10-30T20:33:31.884Z,17.45
2022-10-30T20:35:58.893Z,14.40
2022-10-30T20:38:29.348Z,17.80
2022-10-30T20:40:57.508Z,18.77
2022-10-30T20:43:36.358Z,19.55
2022-10-30T20:46:05.678Z,21.77
2022-10-30T20:48:32.692Z,22.90
2022-10-30T20:51:01.760Z,35.15
2022-10-30T20:53:30.130Z,43.42
2022-10-30T20:55:57.509Z,48.22
2022-10-30T20:58:24.965Z,51.85
2022-10-30T21:00:55.438Z,51.17
2022-10-30T21:03:22.513Z,50.50
2022-10-30T21:05:55.691Z,43.78
2022-10-30T21:08:22.613Z,51.75
2022-10-30T21:10:49.398Z,51.10
2022-10-30T21:13:16.346Z,46.50
2022-10-30T21:15:44.923Z,46.15
2022-10-30T21:18:13.277Z,52.03
2022-10-30T21:20:41.253Z,50.63
2022-10-30T21:23:08.967Z,44.67
2022-10-30T21:25:36.009Z,39.38
2022-10-30T21:28:04.266Z,36.55
2022-10-30T21:30:31.433Z,76.70
2022-10-30T21:32:59.607Z,46.97
2022-10-30T21:35:27.369Z,50.65
2022-10-30T21:37:54.191Z,45.67
2022-10-30T21:40:21.028Z,39.58
2022-10-30T21:42:48.761Z,33.58
2022-10-30T21:45:15.719Z,26.98
2022-10-30T21:47:42.636Z,27.80
2022-10-30T21:50:12.388Z,16.73
2022-10-30T21:52:40.015Z,15.70
2022-10-30T21:55:07.382Z,16.88
2022-10-30T21:57:34.524Z,16.40
2022-10-30T22:00:05.502Z,18.35
2022-10-30T22:02:35.460Z,20.17
2022-10-30T22:05:02.302Z,24.55
2022-10-30T22:07:29.176Z,22.02
2022-10-30T22:09:56.155Z,19.40
2022-10-30T22:12:23.257Z,11.32
2022-10-30T22:14:50.094Z,15.48
2022-10-30T22:17:18.024Z,15.40
2022-10-30T22:19:45.392Z,20.70
2022-10-30T22:22:12.791Z,18.85
2022-10-30T22:24:39.671Z,15.38
2022-10-30T22:27:06.872Z,16.75
2022-10-30T22:29:34.090Z,17.08
2022-10-30T22:32:03.375Z,17.85
2022-10-30T22:34:36.310Z,15.25
2022-10-30T22:37:03.348Z,15.43
2022-10-30T22:39:30.449Z,18.90
2022-10-30T22:41:57.678Z,19.02
2022-10-30T22:44:24.612Z,18.23
2022-10-30T22:46:51.631Z,19.77
2022-10-30T22:49:18.675Z,23.42
2022-10-30T22:51:45.795Z,19.02
2022-10-30T22:54:13.312Z,22.30
2022-10-30T22:56:41.050Z,22.67
2022-10-30T22:59:11.313Z,19.65
2022-10-30T23:01:39.913Z,24.58
2022-10-30T23:04:08.187Z,22.17
2022-10-30T23:06:35.988Z,26.42
2022-10-30T23:09:06.519Z,23.55
2022-10-30T23:11:33.922Z,20.35
2022-10-30T23:14:01.263Z,21.88
2022-10-30T23:16:30.928Z,21.63
2022-10-30T23:19:03.038Z,20.75
2022-10-30T23:21:31.495Z,23.13
2022-10-30T23:23:59.700Z,20.25
2022-10-30T23:26:30.341Z,20.27
2022-10-30T23:28:58.186Z,20.10
2022-10-30T23:31:29.609Z,18.65
2022-10-30T23:33:59.431Z,18.38
2022-10-30T23:36:26.875Z,18.52
2022-10-30T23:38:54.591Z,22.45
2022-10-30T23:41:24.936Z,16.77
2022-10-30T23:43:56.568Z,16.02
2022-10-30T23:46:23.910Z,15.45
2022-10-30T23:48:51.161Z,18.67
2022-10-30T23:51:20.631Z,15.13
2022-10-30T23:53:47.870Z,13.95
2022-10-30T23:56:15.267Z,20.52
2022-10-30T23:58:47.580Z,15.10
